Time;durP1;ratioP1;P1;durP2;ratioP2;P2;SDS_P1;SDS_P2;PMS_P1;PMS_P2;Temp;Humidity;BMP_temperature;BMP_pressure;BME280_temperature;BME280_humidity;BME280_pressure;Samples;Min_cycle;Max_cycle;Signal;HPM_P1;HPM_P2
2021/05/29 00:02:07;;;;;;;9.63;6.60;;;10.80;56.70;;;;;;5052660;28;20657;-60
2021/05/29 00:04:32;;;;;;;11.00;6.90;;;10.60;60.10;;;;;;5052208;28;20624;-60
2021/05/29 00:06:58;;;;;;;14.97;7.40;;;10.70;93.20;;;;;;5052593;28;20188;-60
2021/05/29 00:09:23;;;;;;;15.00;7.80;;;10.60;99.90;;;;;;5052978;28;20187;-60
2021/05/29 00:11:52;;;;;;;12.10;6.90;;;10.70;61.00;;;;;;5052548;28;20287;-60
2021/05/29 00:14:18;;;;;;;9.23;6.05;;;10.40;87.10;;;;;;5034576;28;20519;-60
2021/05/29 00:16:43;;;;;;;10.57;7.67;;;10.40;99.90;;;;;;5052093;28;20170;-60
2021/05/29 00:19:09;;;;;;;10.03;7.00;;;10.40;99.90;;;;;;5052039;28;20250;-60
2021/05/29 00:21:34;;;;;;;10.23;7.10;;;10.40;99.90;;;;;;5055328;28;20176;-60
2021/05/29 00:24:00;;;;;;;9.30;7.50;;;10.60;99.90;;;;;;5055376;28;20510;-60
2021/05/29 00:26:26;;;;;;;12.83;8.27;;;10.70;99.90;;;;;;5055997;28;20205;-60
2021/05/29 00:28:52;;;;;;;18.10;9.27;;;10.70;54.90;;;;;;5056025;28;20176;-60
2021/05/29 00:31:19;;;;;;;13.23;9.05;;;10.70;63.80;;;;;;5055621;28;20177;-60
2021/05/29 00:33:44;;;;;;;12.38;8.38;;;10.70;58.90;;;;;;5055133;28;20201;-60
2021/05/29 00:36:10;;;;;;;13.03;7.80;;;10.80;90.50;;;;;;5055694;28;20249;-60
2021/05/29 00:38:35;;;;;;;9.70;8.57;;;10.70;44.40;;;;;;5055543;28;20610;-60
2021/05/29 00:41:07;;;;;;;10.07;7.00;;;10.40;99.90;;;;;;5055334;28;20180;-60
2021/05/29 00:43:33;;;;;;;11.50;6.95;;;10.30;99.90;;;;;;5055241;28;20253;-60
2021/05/29 00:45:59;;;;;;;11.45;8.30;;;10.40;99.90;;;;;;5054964;28;20195;-60
2021/05/29 00:48:25;;;;;;;12.70;8.23;;;10.10;99.90;;;;;;5055329;28;20177;-60
2021/05/29 00:50:58;;;;;;;14.03;8.43;;;10.00;99.90;;;;;;5055447;28;20181;-60
2021/05/29 00:53:24;;;;;;;13.00;8.13;;;10.00;99.90;;;;;;5055058;28;20705;-60
2021/05/29 00:55:50;;;;;;;11.67;8.37;;;10.10;99.90;;;;;;5055004;28;20219;-60
2021/05/29 00:58:20;;;;;;;11.03;8.47;;;10.20;99.90;;;;;;5055078;28;20431;-60
2021/05/29 01:00:46;;;;;;;17.65;8.43;;;10.40;99.90;;;;;;5055104;28;20211;-60
2021/05/29 01:03:15;;;;;;;13.03;7.67;;;10.50;99.90;;;;;;5055149;28;20268;-60
2021/05/29 01:05:42;;;;;;;10.15;7.68;;;10.30;99.90;;;;;;5054768;28;20252;-60
2021/05/29 01:08:08;;;;;;;11.35;7.30;;;10.00;99.90;;;;;;5055071;28;20177;-60
2021/05/29 01:10:34;;;;;;;10.03;8.40;;;10.00;99.90;;;;;;5055037;28;20196;-60
2021/05/29 01:13:01;;;;;;;12.20;8.53;;;10.10;99.90;;;;;;5054788;28;20462;-60
2021/05/29 01:15:42;;;;;;;14.52;8.88;;;10.00;99.90;;;;;;5054574;28;20462;-60
2021/05/29 01:18:10;;;;;;;10.57;7.78;;;10.10;99.90;;;;;;5055249;28;20188;-60
2021/05/29 01:20:37;;;;;;;10.13;8.98;;;10.10;99.90;;;;;;5055130;28;20173;-60
2021/05/29 01:23:03;;;;;;;10.90;8.10;;;10.20;99.90;;;;;;5054753;28;20543;-60
2021/05/29 01:25:36;;;;;;;9.80;8.47;;;10.20;99.90;;;;;;5054318;28;20181;-60
2021/05/29 01:28:16;;;;;;;12.30;9.35;;;10.00;99.90;;;;;;5054760;28;20522;-60
2021/05/29 01:30:56;;;;;;;12.32;8.75;;;10.10;99.90;;;;;;5055125;28;20208;-60
2021/05/29 01:33:23;;;;;;;13.73;9.35;;;10.10;99.90;;;;;;5055614;28;20675;-60
2021/05/29 01:35:51;;;;;;;10.85;8.30;;;10.20;99.90;;;;;;5055287;28;20192;-60
2021/05/29 01:38:20;;;;;;;13.07;8.45;;;10.30;99.90;;;;;;5055486;28;20613;-60
2021/05/29 01:40:46;;;;;;;13.07;10.07;;;10.30;99.90;;;;;;5054391;28;20173;-60
2021/05/29 01:43:13;;;;;;;16.63;9.07;;;10.20;99.90;;;;;;5054058;28;20181;-60
2021/05/29 01:45:41;;;;;;;14.68;10.13;;;10.20;99.90;;;;;;5054425;28;20268;-61
2021/05/29 01:48:07;;;;;;;10.90;8.60;;;10.20;99.90;;;;;;5055201;28;20242;-60
2021/05/29 01:50:34;;;;;;;13.95;10.93;;;10.10;99.90;;;;;;5054477;28;20211;-60
2021/05/29 01:53:04;;;;;;;16.17;10.55;;;10.10;99.90;;;;;;5054367;28;20205;-60
2021/05/29 01:55:32;;;;;;;17.20;10.88;;;10.10;99.90;;;;;;5053966;28;20172;-60
2021/05/29 01:58:02;;;;;;;16.08;10.93;;;9.90;99.90;;;;;;5054052;28;20176;-60
2021/05/29 02:00:28;;;;;;;13.98;9.65;;;9.90;99.90;;;;;;5053974;28;20177;-60
2021/05/29 02:02:56;;;;;;;15.10;9.68;;;10.10;99.90;;;;;;5053894;28;20494;-60
2021/05/29 02:05:23;;;;;;;11.35;9.07;;;10.10;99.90;;;;;;5053473;28;20177;-60
2021/05/29 02:07:50;;;;;;;13.88;9.70;;;10.10;99.90;;;;;;5036285;28;20270;-60
2021/05/29 02:10:20;;;;;;;13.82;8.55;;;9.90;99.90;;;;;;5054019;28;20196;-60
2021/05/29 02:12:48;;;;;;;15.60;9.05;;;10.00;99.90;;;;;;5054889;28;20228;-60
2021/05/29 02:15:20;;;;;;;12.40;9.40;;;9.90;99.90;;;;;;5053717;28;20183;-60
2021/05/29 02:17:49;;;;;;;14.55;9.60;;;9.90;99.90;;;;;;5016343;28;20177;-60
2021/05/29 02:20:17;;;;;;;13.43;8.65;;;9.90;99.90;;;;;;4843563;28;20215;-62
2021/05/29 02:22:44;;;;;;;15.23;10.55;;;9.90;99.90;;;;;;4865648;28;20187;-62
2021/05/29 02:25:49;;;;;;;15.88;9.65;;;10.00;99.90;;;;;;4847190;28;20522;-60
2021/05/29 02:29:23;;;;;;;13.18;8.50;;;10.00;99.90;;;;;;4789246;28;20835;-65
2021/05/29 02:32:51;;;;;;;16.63;12.48;;;10.10;99.90;;;;;;4801789;28;20783;-64
2021/05/29 02:36:17;;;;;;;20.15;12.90;;;9.90;99.90;;;;;;4780397;28;20177;-64
2021/05/29 02:39:45;;;;;;;14.48;11.25;;;10.00;99.90;;;;;;4741246;28;20195;-60
2021/05/29 02:43:22;;;;;;;18.98;10.82;;;10.00;99.90;;;;;;4731452;28;20182;-64
2021/05/29 02:47:20;;;;;;;16.23;10.60;;;9.90;99.90;;;;;;4789728;28;20248;-60
2021/05/29 02:50:44;;;;;;;16.45;9.50;;;9.90;99.90;;;;;;4773124;28;20685;-60
2021/05/29 02:54:22;;;;;;;17.55;10.30;;;9.90;99.90;;;;;;4727888;28;20237;-64
2021/05/29 02:57:49;;;;;;;17.17;11.18;;;10.10;99.90;;;;;;4766916;28;20306;-63
2021/05/29 03:01:28;;;;;;;16.00;11.07;;;10.20;99.90;;;;;;4778740;28;20644;-62
2021/05/29 03:04:59;;;;;;;13.88;9.82;;;10.00;99.90;;;;;;4728918;28;20494;-60
2021/05/29 03:08:29;;;;;;;15.02;10.90;;;9.90;99.90;;;;;;4736289;28;20861;-62
2021/05/29 03:11:48;;;;;;;21.48;11.75;;;9.80;99.90;;;;;;4727600;28;20633;-62
2021/05/29 03:15:12;;;;;;;18.85;13.18;;;9.90;99.90;;;;;;4816905;28;21032;-60
2021/05/29 03:18:46;;;;;;;20.55;12.23;;;9.90;99.90;;;;;;4782580;28;20276;-62
2021/05/29 03:22:27;;;;;;;20.65;11.90;;;10.10;99.90;;;;;;4789745;28;21025;-62
2021/05/29 03:26:05;;;;;;;15.60;10.77;;;10.20;99.90;;;;;;4700131;29;20188;-65
2021/05/29 03:29:36;;;;;;;15.77;9.00;;;10.50;99.90;;;;;;4724568;29;20196;-62
2021/05/29 03:33:35;;;;;;;13.80;9.00;;;10.30;99.90;;;;;;4709827;29;20653;-62
2021/05/29 03:37:10;;;;;;;11.90;7.75;;;10.30;99.90;;;;;;4781400;28;20200;-64
2021/05/29 03:40:54;;;;;;;17.92;9.05;;;10.30;99.90;;;;;;4699303;29;20185;-65
2021/05/29 03:44:12;;;;;;;13.15;8.43;;;10.60;99.90;;;;;;4734106;28;20193;-64
2021/05/29 03:48:13;;;;;;;14.40;7.97;;;10.50;99.90;;;;;;4663864;28;20209;-63
2021/05/29 03:51:47;;;;;;;14.60;11.45;;;10.50;99.90;;;;;;4781556;28;20548;-63
2021/05/29 03:55:26;;;;;;;18.90;10.82;;;10.20;99.90;;;;;;4720805;28;20608;-65
2021/05/29 04:02:34;;;;;;;16.95;11.80;;;10.00;99.90;;;;;;4738992;28;20222;-65
2021/05/29 04:06:35;;;;;;;19.83;13.20;;;9.90;99.90;;;;;;4751126;28;20730;-63
2021/05/29 04:10:33;;;;;;;21.05;13.15;;;9.80;99.90;;;;;;4688422;29;20684;-61
2021/05/29 04:14:11;;;;;;;19.60;12.30;;;10.10;99.90;;;;;;4722311;28;21052;-65
2021/05/29 04:17:35;;;;;;;16.25;9.75;;;10.00;99.90;;;;;;4643271;29;21063;-65
2021/05/29 04:21:28;;;;;;;13.07;8.73;;;9.70;99.90;;;;;;4703700;28;21021;-64
2021/05/29 04:24:49;;;;;;;15.38;9.25;;;9.90;99.90;;;;;;4693769;28;20206;-64
2021/05/29 04:28:32;;;;;;;15.93;9.75;;;9.80;99.90;;;;;;4598072;29;20622;-64
2021/05/29 04:32:26;;;;;;;15.48;8.50;;;9.90;99.90;;;;;;4679447;28;20674;-66
2021/05/29 04:35:56;;;;;;;14.80;10.00;;;10.10;99.90;;;;;;4637588;29;20530;-65
2021/05/29 04:39:20;;;;;;;12.63;8.77;;;10.10;99.90;;;;;;4609352;29;20580;-65
2021/05/29 04:42:50;;;;;;;13.00;9.07;;;10.10;99.90;;;;;;4649147;29;21228;-65
2021/05/29 04:46:38;;;;;;;10.80;7.75;;;10.10;99.90;;;;;;4629321;29;21033;-65
2021/05/29 04:50:14;;;;;;;12.98;8.75;;;10.00;99.90;;;;;;4643655;29;20653;-64
2021/05/29 04:54:13;;;;;;;14.05;8.95;;;9.90;99.90;;;;;;4622363;29;21089;-64
2021/05/29 04:57:44;;;;;;;14.45;8.65;;;10.00;99.90;;;;;;4571054;29;20562;-64
2021/05/29 05:01:17;;;;;;;11.30;8.23;;;10.00;99.90;;;;;;4642927;29;20622;-64
2021/05/29 05:04:58;;;;;;;11.85;8.70;;;10.20;99.90;;;;;;4647911;28;21316;-64
2021/05/29 05:08:38;;;;;;;14.90;9.27;;;10.10;99.90;;;;;;4638794;28;20284;-65
2021/05/29 05:12:05;;;;;;;15.85;9.73;;;10.20;99.90;;;;;;4679198;28;20619;-64
2021/05/29 05:16:04;;;;;;;13.23;9.40;;;10.10;99.90;;;;;;4643262;28;20243;-64
2021/05/29 05:19:44;;;;;;;14.93;9.25;;;10.20;99.90;;;;;;4676335;28;20962;-65
2021/05/29 05:23:33;;;;;;;14.80;10.25;;;10.50;99.90;;;;;;4646143;29;20195;-64
2021/05/29 05:27:32;;;;;;;16.25;9.30;;;10.50;99.90;;;;;;4653251;29;20581;-65
2021/05/29 05:31:13;;;;;;;16.52;11.60;;;10.80;99.90;;;;;;4666867;28;20316;-64
2021/05/29 05:38:38;;;;;;;14.50;9.45;;;10.70;99.90;;;;;;4648020;28;20286;-66
2021/05/29 05:45:04;;;;;;;17.02;10.93;;;11.00;91.50;;;;;;4668966;28;21021;-64
2021/05/29 05:48:38;;;;;;;17.85;10.50;;;10.80;95.40;;;;;;4665797;28;20537;-64
2021/05/29 05:52:18;;;;;;;11.93;8.38;;;10.40;99.90;;;;;;4719464;28;20676;-64
2021/05/29 05:56:00;;;;;;;11.70;9.43;;;10.40;99.90;;;;;;4727672;28;20967;-64
2021/05/29 05:59:45;;;;;;;11.98;8.00;;;10.70;99.90;;;;;;4706380;28;20199;-64
2021/05/29 06:03:38;;;;;;;12.32;8.75;;;10.90;96.60;;;;;;4567636;29;20282;-64
2021/05/29 06:07:26;;;;;;;14.40;10.57;;;10.70;99.90;;;;;;4627178;28;20198;-64
2021/05/29 06:11:28;;;;;;;13.40;9.18;;;10.20;99.90;;;;;;4679839;28;21165;-64
2021/05/29 06:19:25;;;;;;;15.00;9.32;;;10.30;99.90;;;;;;4673262;28;20681;-64
2021/05/29 06:23:03;;;;;;;10.65;7.53;;;10.30;99.90;;;;;;4553520;29;20247;-64
2021/05/29 06:26:24;;;;;;;11.02;7.65;;;10.50;93.50;;;;;;4555286;29;20677;-64
2021/05/29 06:30:04;;;;;;;10.07;6.97;;;10.60;96.90;;;;;;4601324;28;20598;-64
2021/05/29 06:33:45;;;;;;;12.77;7.35;;;10.90;78.70;;;;;;4610436;28;20618;-64
2021/05/29 06:37:03;;;;;;;11.68;8.80;;;10.80;47.20;;;;;;4559045;29;21135;-64
2021/05/29 06:40:41;;;;;;;12.20;8.98;;;10.80;24.00;;;;;;4679640;28;20190;-60
2021/05/29 06:44:07;;;;;;;11.02;8.48;;;10.70;52.80;;;;;;4571978;29;20632;-60
2021/05/29 06:47:37;;;;;;;12.15;7.68;;;10.60;56.80;;;;;;4602026;29;20200;-60
2021/05/29 06:51:39;;;;;;;7.68;6.20;;;10.60;82.70;;;;;;4612008;29;20595;-60
2021/05/29 07:01:07;;;;;;;15.05;9.23;;;10.40;99.90;;;;;;4561685;29;37337;-60
2021/05/29 07:03:47;;;;;;;9.35;7.25;;;10.80;99.90;;;;;;4654707;28;30831;-62
2021/05/29 07:06:13;;;;;;;12.73;8.20;;;11.00;36.00;;;;;;4550205;28;20560;-62
2021/05/29 07:29:55;;;;;;;12.52;8.60;;;11.40;1.00;;;;;;5012075;28;20615;-62
2021/05/29 07:33:16;;;;;;;10.32;8.32;;;11.00;1.00;;;;;;4708548;28;21137;-62
2021/05/29 07:35:43;;;;;;;12.90;9.50;;;11.30;1.00;;;;;;4713444;28;20186;-62
2021/05/29 07:39:15;;;;;;;12.02;8.45;;;10.90;1.00;;;;;;4702811;28;20651;-62
2021/05/29 07:42:58;;;;;;;10.80;8.27;;;11.10;1.00;;;;;;4630810;28;20759;-62
2021/05/29 07:46:03;;;;;;;13.82;10.43;;;12.00;1.00;;;;;;4618470;28;91997;-62
2021/05/29 07:49:14;;;;;;;9.70;7.30;;;11.70;1.00;;;;;;4619570;28;70081;-60
2021/05/29 07:52:26;;;;;;;16.60;11.40;;;11.70;99.90;;;;;;4559745;28;20889;-60
2021/05/29 07:56:07;;;;;;;13.15;8.90;;;11.50;1.00;;;;;;4666843;28;21170;-60
2021/05/29 07:59:36;;;;;;;15.38;10.57;;;11.80;99.90;;;;;;4641655;28;20269;-60
2021/05/29 08:03:14;;;;;;;14.68;9.00;;;12.50;99.90;;;;;;4575098;29;20303;-60
2021/05/29 08:06:28;;;;;;;9.60;8.02;;;12.80;1.00;;;;;;4540772;29;20203;-61
2021/05/29 08:10:08;;;;;;;10.05;7.70;;;12.40;1.00;;;;;;4523906;29;20297;-61
2021/05/29 08:14:09;;;;;;;8.27;6.15;;;11.90;96.30;;;;;;4574442;28;20614;-61
2021/05/29 08:17:42;;;;;;;12.60;8.18;;;11.50;99.90;;;;;;4643507;28;20189;-61
2021/05/29 08:21:02;;;;;;;14.35;7.93;;;11.40;1.00;;;;;;4557481;28;20232;-61
2021/05/29 08:24:49;;;;;;;13.73;9.15;;;11.50;99.90;;;;;;4577421;28;20551;-61
2021/05/29 08:28:13;;;;;;;10.07;7.30;;;11.90;99.90;;;;;;4720928;28;20852;-63
2021/05/29 08:31:55;;;;;;;9.00;6.60;;;12.20;99.90;;;;;;4751953;28;20408;-65
2021/05/29 08:38:58;;;;;;;12.02;8.65;;;12.60;1.00;;;;;;4825139;28;20709;-64
2021/05/29 08:42:31;;;;;;;13.35;10.23;;;12.80;99.90;;;;;;4746404;28;21004;-59
2021/05/29 08:46:15;;;;;;;11.48;8.00;;;13.30;99.90;;;;;;4697177;28;20717;-64
2021/05/29 08:49:47;;;;;;;11.15;10.05;;;13.90;99.90;;;;;;4648707;28;20455;-66
2021/05/29 08:53:25;;;;;;;12.07;9.25;;;14.10;99.90;;;;;;4586232;28;20214;-66
2021/05/29 08:56:53;;;;;;;10.23;8.47;;;13.60;1.00;;;;;;4488521;28;40639;-65
2021/05/29 09:00:17;;;;;;;10.57;8.45;;;13.90;1.00;;;;;;4650197;28;21071;-69
2021/05/29 09:04:00;;;;;;;11.55;8.02;;;13.80;99.90;;;;;;4630758;28;20773;-68
2021/05/29 09:07:40;;;;;;;9.65;6.65;;;14.20;1.00;;;;;;4612377;29;20276;-70
2021/05/29 09:11:16;;;;;;;9.73;7.57;;;14.70;1.00;;;;;;4612620;29;20192;-68
2021/05/29 09:15:11;;;;;;;9.05;7.72;;;14.30;99.90;;;;;;4606291;29;20706;-68
2021/05/29 09:22:17;;;;;;;8.55;7.13;;;15.40;99.90;;;;;;4683047;28;20864;-70
2021/05/29 09:26:09;;;;;;;7.47;6.68;;;15.10;1.00;;;;;;4599312;28;20603;-72
2021/05/29 09:30:03;;;;;;;9.27;6.35;;;14.80;99.90;;;;;;4537493;29;20754;-67
2021/05/29 09:34:00;;;;;;;8.90;7.22;;;15.00;99.90;;;;;;4568643;29;20672;-66
2021/05/29 09:37:50;;;;;;;8.32;7.13;;;14.00;99.90;;;;;;4564829;29;20744;-71
2021/05/29 09:48:59;;;;;;;13.57;10.15;;;13.70;99.90;;;;;;4690593;28;20199;-69
2021/05/29 09:52:54;;;;;;;11.05;9.25;;;14.20;1.00;;;;;;4667148;28;20644;-68
2021/05/29 09:56:37;;;;;;;9.95;8.45;;;14.70;81.20;;;;;;4677080;28;20590;-65
2021/05/29 10:00:27;;;;;;;10.65;8.63;;;16.20;99.90;;;;;;4663443;28;20949;-66
2021/05/29 10:04:08;;;;;;;11.73;9.15;;;14.70;99.90;;;;;;4630993;28;20471;-63
2021/05/29 10:07:55;;;;;;;10.52;9.10;;;14.20;1.00;;;;;;4630599;28;20275;-67
2021/05/29 10:11:37;;;;;;;14.20;8.48;;;14.90;99.90;;;;;;4606678;29;20616;-65
2021/05/29 10:14:57;;;;;;;10.05;8.57;;;14.70;1.00;;;;;;4681291;28;20237;-68
2021/05/29 10:18:23;;;;;;;7.87;7.07;;;14.70;1.00;;;;;;4598182;28;20435;-64
2021/05/29 10:22:28;;;;;;;9.85;7.97;;;14.50;1.00;;;;;;4605165;28;21051;-64
2021/05/29 10:26:15;;;;;;;9.15;7.45;;;14.70;99.90;;;;;;4686799;28;20186;-63
2021/05/29 10:30:11;;;;;;;9.80;8.50;;;15.40;1.00;;;;;;4667430;28;20659;-66
2021/05/29 10:33:41;;;;;;;11.05;8.80;;;16.00;1.00;;;;;;4641846;28;20556;-69
2021/05/29 10:37:44;;;;;;;9.63;8.57;;;17.00;99.90;;;;;;4649808;28;20627;-66
2021/05/29 10:41:10;;;;;;;10.43;8.07;;;16.00;1.00;;;;;;4696851;28;20506;-71
2021/05/29 10:44:56;;;;;;;8.63;6.70;;;15.90;1.00;;;;;;4648843;28;21210;-68
2021/05/29 10:48:37;;;;;;;7.90;6.90;;;15.50;99.90;;;;;;4630419;29;20436;-67
2021/05/29 10:52:01;;;;;;;10.27;8.40;;;14.90;1.00;;;;;;4698974;28;20553;-66
2021/05/29 10:55:33;;;;;;;10.00;7.82;;;15.00;1.00;;;;;;4611355;29;20457;-66
2021/05/29 10:59:10;;;;;;;10.32;9.32;;;15.10;1.00;;;;;;4601957;29;20593;-69
2021/05/29 11:02:45;;;;;;;9.93;7.82;;;15.70;71.70;;;;;;4595697;29;20539;-66
2021/05/29 11:06:27;;;;;;;8.90;7.95;;;15.70;99.90;;;;;;4542177;29;20528;-64
2021/05/29 11:10:29;;;;;;;8.68;7.75;;;16.00;1.00;;;;;;4553731;29;20201;-72
2021/05/29 11:14:04;;;;;;;8.00;6.90;;;16.80;99.90;;;;;;4568572;29;21100;-67
2021/05/29 11:17:53;;;;;;;8.30;6.47;;;16.40;1.00;;;;;;4612785;29;20728;-66
2021/05/29 13:15:20;;;;;;;8.20;7.20;;;16.50;1.00;;;;;;4741298;28;20843;-65
2021/05/29 13:19:18;;;;;;;7.60;6.90;;;15.90;99.90;;;;;;4735383;28;20780;-65
2021/05/29 13:23:30;;;;;;;10.20;7.45;;;15.50;1.00;;;;;;4667148;29;20811;-64
2021/05/29 13:27:36;;;;;;;11.65;8.93;;;14.70;1.00;;;;;;4611024;29;20246;-66
2021/05/29 13:31:21;;;;;;;12.32;9.25;;;15.10;2.80;;;;;;4635939;29;20181;-66
2021/05/29 13:35:01;;;;;;;12.02;9.25;;;15.00;1.00;;;;;;4703082;28;20389;-66
2021/05/29 13:38:33;;;;;;;10.38;7.40;;;15.40;99.90;;;;;;4679211;28;20419;-66
2021/05/29 13:42:23;;;;;;;8.85;7.95;;;15.10;99.90;;;;;;4685529;28;20855;-66
2021/05/29 13:46:01;;;;;;;10.97;8.50;;;15.70;1.00;;;;;;4639214;28;20553;-65
2021/05/29 13:49:30;;;;;;;6.65;5.95;;;16.20;99.90;;;;;;4644025;28;20999;-65
2021/05/29 13:53:06;;;;;;;7.25;6.55;;;15.30;1.00;;;;;;4719821;28;20606;-64
2021/05/29 13:56:58;;;;;;;8.52;7.15;;;15.20;99.90;;;;;;4617841;28;20613;-64
2021/05/29 14:00:47;;;;;;;6.88;6.18;;;14.70;1.00;;;;;;4557595;29;20989;-64
2021/05/29 14:04:51;;;;;;;6.33;5.30;;;15.70;1.00;;;;;;4544231;29;20635;-65
2021/05/29 14:08:08;;;;;;;6.18;5.55;;;15.90;1.00;;;;;;4585077;29;20837;-67
2021/05/29 14:11:41;;;;;;;7.28;5.68;;;15.50;99.90;;;;;;4696011;28;20492;-65
2021/05/29 14:15:13;;;;;;;8.32;7.50;;;14.50;54.70;;;;;;4610072;29;20229;-65
2021/05/29 14:19:02;;;;;;;7.95;6.40;;;14.90;1.00;;;;;;4639312;29;20624;-65
2021/05/29 14:22:53;;;;;;;8.07;6.95;;;14.90;99.90;;;;;;4695048;28;20805;-65
2021/05/29 14:26:47;;;;;;;7.05;6.20;;;14.90;99.90;;;;;;4640745;29;20194;-66
2021/05/29 14:30:48;;;;;;;10.30;5.93;;;15.30;1.00;;;;;;4660866;29;20748;-65
2021/05/29 14:34:40;;;;;;;5.72;5.13;;;15.40;97.10;;;;;;4561057;29;20671;-64
2021/05/29 14:38:27;;;;;;;7.90;5.40;;;15.50;1.00;;;;;;4699294;28;20561;-65
2021/05/29 14:41:53;;;;;;;6.60;5.53;;;15.50;90.90;;;;;;4649335;29;20188;-66
2021/05/29 14:45:14;;;;;;;6.10;5.60;;;15.50;1.00;;;;;;4625508;28;20564;-62
2021/05/29 14:49:17;;;;;;;5.65;5.05;;;15.60;99.90;;;;;;4647616;29;20443;-66
2021/05/29 14:53:02;;;;;;;7.05;6.30;;;15.30;1.00;;;;;;4644008;29;20601;-66
2021/05/29 14:56:45;;;;;;;8.90;6.82;;;15.80;99.90;;;;;;4665034;29;20521;-64
2021/05/29 15:00:33;;;;;;;8.32;6.97;;;15.80;99.90;;;;;;4667402;29;20629;-66
2021/05/29 15:03:55;;;;;;;10.02;8.70;;;15.60;99.90;;;;;;4558675;29;20192;-64
2021/05/29 15:07:24;;;;;;;8.07;6.80;;;15.60;6.80;;;;;;4558728;29;21044;-65
2021/05/29 15:11:22;;;;;;;8.85;6.75;;;15.80;1.00;;;;;;4652965;28;20631;-64
2021/05/29 15:15:16;;;;;;;7.38;6.72;;;15.60;1.00;;;;;;4636437;28;20742;-64
2021/05/29 15:22:42;;;;;;;7.25;6.63;;;15.60;99.90;;;;;;4637890;29;21095;-65
2021/05/29 15:30:31;;;;;;;8.18;6.50;;;15.50;99.90;;;;;;4623305;29;20591;-65
2021/05/29 15:34:19;;;;;;;7.60;5.57;;;15.80;1.00;;;;;;4691841;28;20202;-64
2021/05/29 15:38:02;;;;;;;11.40;6.80;;;15.80;1.00;;;;;;4601804;29;20640;-67
2021/05/29 15:41:32;;;;;;;7.67;5.90;;;16.00;1.00;;;;;;4565029;29;21079;-64
2021/05/29 15:45:08;;;;;;;6.90;5.75;;;15.50;1.00;;;;;;4568261;29;20467;-66
2021/05/29 15:48:54;;;;;;;6.30;5.80;;;15.30;99.90;;;;;;4551810;29;20589;-64
2021/05/29 15:52:50;;;;;;;6.35;5.47;;;15.80;92.10;;;;;;4616058;29;20749;-64
2021/05/29 15:56:26;;;;;;;6.60;5.75;;;15.70;1.00;;;;;;4639683;29;20227;-65
2021/05/29 16:00:08;;;;;;;6.72;5.80;;;15.50;1.00;;;;;;4623188;29;20216;-64
2021/05/29 16:04:14;;;;;;;8.50;5.60;;;15.40;99.90;;;;;;4650980;29;20575;-64
2021/05/29 16:08:05;;;;;;;10.50;5.43;;;15.50;1.00;;;;;;4646323;29;20758;-63
2021/05/29 16:11:51;;;;;;;7.53;6.78;;;15.40;99.90;;;;;;4671503;28;20615;-63
2021/05/29 16:18:42;;;;;;;7.03;6.22;;;15.30;6.30;;;;;;4626964;28;20939;-64
2021/05/29 16:22:28;;;;;;;6.07;5.45;;;15.80;1.00;;;;;;4701061;28;20531;-63
2021/05/29 16:26:00;;;;;;;7.25;5.80;;;15.60;1.00;;;;;;4630868;28;20211;-66
2021/05/29 16:29:45;;;;;;;7.55;5.25;;;15.50;1.00;;;;;;4590490;28;20651;-65
2021/05/29 16:33:32;;;;;;;7.32;6.28;;;15.40;1.00;;;;;;4527913;28;20593;-64
2021/05/29 16:37:10;;;;;;;7.72;6.10;;;15.60;1.00;;;;;;4654703;28;20630;-64
2021/05/29 16:40:55;;;;;;;6.85;6.15;;;15.60;99.90;;;;;;4654900;28;20588;-65
2021/05/29 16:44:33;;;;;;;6.40;5.20;;;15.20;99.90;;;;;;4602167;28;20222;-66
2021/05/29 16:48:04;;;;;;;6.75;6.00;;;15.30;1.00;;;;;;4594514;29;20784;-64
2021/05/29 16:52:03;;;;;;;13.43;6.10;;;15.40;1.00;;;;;;4594659;28;20783;-68
2021/05/29 16:56:11;;;;;;;7.22;5.43;;;15.20;1.00;;;;;;4570775;29;20222;-67
2021/05/29 16:59:09;;;;;;;8.75;5.78;;;15.00;88.70;;;;;;4676347;28;21196;-69
2021/05/29 17:02:17;;;;;;;6.53;5.60;;;15.40;1.00;;;;;;4551381;28;20585;-67
2021/05/29 17:05:26;;;;;;;7.28;6.20;;;15.90;99.90;;;;;;4514271;29;24957;-68
2021/05/29 17:09:08;;;;;;;7.85;5.97;;;15.60;1.00;;;;;;4597794;28;20215;-67
2021/05/29 17:12:55;;;;;;;8.45;6.93;;;15.20;99.90;;;;;;4663417;28;20600;-67
2021/05/29 17:16:22;;;;;;;9.40;5.65;;;14.80;99.90;;;;;;4693194;28;20214;-66
2021/05/29 17:20:18;;;;;;;6.28;5.22;;;14.90;99.90;;;;;;4667954;28;20751;-67
2021/05/29 17:24:01;;;;;;;8.95;6.88;;;15.20;1.00;;;;;;4685507;28;21065;-64
2021/05/29 17:27:50;;;;;;;8.25;5.70;;;15.80;1.00;;;;;;4698641;28;20593;-67
2021/05/29 17:31:38;;;;;;;8.43;5.70;;;15.90;99.90;;;;;;4689320;28;20626;-67
2021/05/29 17:35:00;;;;;;;6.85;5.57;;;15.90;99.90;;;;;;4625894;28;20632;-69
2021/05/29 17:38:53;;;;;;;7.95;6.10;;;15.50;99.90;;;;;;4592956;29;20989;-67
2021/05/29 17:42:39;;;;;;;6.35;5.70;;;15.40;99.90;;;;;;4607405;29;20447;-66
2021/05/29 17:45:58;;;;;;;10.48;6.70;;;15.10;99.90;;;;;;4623843;29;20579;-67
2021/05/29 17:49:47;;;;;;;10.95;5.30;;;15.20;99.90;;;;;;4580392;29;20795;-64
2021/05/29 17:53:18;;;;;;;10.02;5.88;;;14.90;99.90;;;;;;4512354;29;20530;-68
2021/05/29 17:56:46;;;;;;;7.00;5.47;;;14.70;99.90;;;;;;4610349;29;20691;-67
2021/05/29 18:00:28;;;;;;;7.50;5.25;;;14.80;1.00;;;;;;4602167;29;20722;-66
2021/05/29 18:04:20;;;;;;;7.38;4.75;;;14.60;1.00;;;;;;4639079;28;20573;-65
2021/05/29 18:07:32;;;;;;;6.93;4.93;;;14.60;99.90;;;;;;4693699;28;20998;-63
2021/05/29 18:11:00;;;;;;;6.32;5.68;;;14.60;99.90;;;;;;4616014;28;20194;-65
2021/05/29 18:14:37;;;;;;;9.88;6.32;;;14.60;1.00;;;;;;4556451;28;20237;-65
2021/05/29 18:18:18;;;;;;;9.75;5.30;;;14.80;99.90;;;;;;4600281;29;20193;-64
2021/05/29 18:21:50;;;;;;;8.07;5.47;;;14.90;99.90;;;;;;4526807;29;20605;-66
2021/05/29 18:25:20;;;;;;;7.93;5.00;;;15.10;1.00;;;;;;4576652;29;20193;-65
2021/05/29 18:29:06;;;;;;;12.05;6.25;;;14.60;99.90;;;;;;4605936;29;20573;-65
2021/05/29 18:32:55;;;;;;;9.30;5.60;;;14.80;99.90;;;;;;4705387;28;20182;-66
2021/05/29 18:40:37;;;;;;;6.85;5.78;;;14.80;99.90;;;;;;4656123;28;20187;-65
2021/05/29 18:44:41;;;;;;;8.00;5.03;;;14.90;1.00;;;;;;4612899;28;20365;-69
2021/05/29 18:48:52;;;;;;;7.75;4.95;;;14.80;99.90;;;;;;4704027;28;21188;-67
2021/05/29 18:52:42;;;;;;;10.00;5.57;;;14.90;1.00;;;;;;4627282;29;20807;-70
2021/05/29 18:56:22;;;;;;;6.43;5.50;;;14.60;1.00;;;;;;4564296;29;20213;-68
2021/05/29 19:04:04;;;;;;;8.95;5.78;;;14.40;99.90;;;;;;4463671;30;20570;-69
2021/05/29 19:11:20;;;;;;;9.52;6.50;;;14.10;59.80;;;;;;4707689;28;20582;-64
2021/05/29 19:18:49;;;;;;;8.88;7.38;;;13.70;99.90;;;;;;4648677;28;20425;-65
2021/05/29 19:22:29;;;;;;;8.70;6.80;;;13.80;99.90;;;;;;4599562;28;20212;-69
2021/05/29 19:29:37;;;;;;;7.75;6.95;;;13.60;1.00;;;;;;4620065;28;20724;-65
2021/05/29 19:43:45;;;;;;;11.65;6.50;;;13.20;1.00;;;;;;4728533;28;20209;-67
2021/05/29 20:26:18;;;;;;;9.55;7.53;;;11.90;99.90;;;;;;4611033;28;20552;-67
2021/05/29 20:30:13;;;;;;;9.95;7.30;;;11.70;99.90;;;;;;4609902;28;20471;-65
2021/05/29 20:37:46;;;;;;;10.57;7.00;;;11.60;99.90;;;;;;4542720;29;20712;-65
2021/05/29 20:41:18;;;;;;;10.00;7.18;;;11.40;99.90;;;;;;4586749;29;20374;-68
2021/05/29 20:45:11;;;;;;;8.98;8.00;;;11.20;99.90;;;;;;4653340;28;20618;-64
2021/05/29 20:49:00;;;;;;;14.38;8.40;;;11.20;99.90;;;;;;4714107;28;20527;-68
2021/05/29 20:52:40;;;;;;;12.85;8.10;;;11.10;99.90;;;;;;4672105;28;20578;-64
2021/05/29 20:56:25;;;;;;;9.38;7.22;;;11.00;99.90;;;;;;4676978;28;20554;-67
2021/05/29 21:00:30;;;;;;;14.23;8.27;;;11.00;99.90;;;;;;4604709;29;20197;-66
2021/05/29 21:04:09;;;;;;;9.57;7.68;;;10.90;99.90;;;;;;4609306;28;20529;-66
2021/05/29 21:07:48;;;;;;;10.07;7.75;;;11.00;99.90;;;;;;4704457;28;20499;-66
2021/05/29 21:11:18;;;;;;;16.88;8.48;;;10.70;99.90;;;;;;4666371;28;20603;-63
2021/05/29 21:22:00;;;;;;;15.52;9.25;;;10.60;99.90;;;;;;4693946;28;20511;-64
2021/05/29 21:25:44;;;;;;;14.35;8.95;;;10.50;99.90;;;;;;4608645;29;20598;-64
2021/05/29 21:29:33;;;;;;;13.75;9.20;;;10.50;99.90;;;;;;4614333;28;20222;-65
2021/05/29 21:36:41;;;;;;;12.15;8.93;;;10.50;99.90;;;;;;4593945;28;20543;-65
2021/05/29 21:43:43;;;;;;;12.25;8.35;;;10.40;99.90;;;;;;4647229;28;20871;-66
2021/05/29 21:50:56;;;;;;;9.05;7.63;;;10.30;99.90;;;;;;4612048;29;20204;-65
2021/05/29 21:54:34;;;;;;;14.38;9.65;;;10.40;99.90;;;;;;4634187;28;20766;-64
2021/05/29 21:57:50;;;;;;;17.35;9.57;;;10.30;99.90;;;;;;4694432;28;20935;-67
2021/05/29 22:12:19;;;;;;;15.82;8.95;;;10.10;99.90;;;;;;4676243;28;20343;-66
2021/05/29 22:29:16;;;;;;;11.25;8.40;;;9.80;99.90;;;;;;4616845;29;20214;-66
2021/05/29 22:32:40;;;;;;;15.85;9.88;;;9.90;99.90;;;;;;4595417;29;20192;-66
2021/05/29 22:36:26;;;;;;;14.80;8.95;;;9.90;99.90;;;;;;4586341;28;21095;-66
2021/05/29 22:40:21;;;;;;;17.48;9.75;;;9.70;99.90;;;;;;4572452;28;21097;-66